Time Latitude Longitude Accuracy (66% radius in meters) Altitude (meters) Speed (km/hour) Bearing (degrees) Battery (%) GPS flag
09:56:05 55.737903 37.299107 8 173.50467513 0.003277413547039 128.78062438965 76 1 delete
09:55:53 55.737906 37.299100 8 174.13548097306 0.36062607169151 128.78062438965 76 1 delete
09:55:41 55.737906 37.299100 6 175.02619517183 0 128.78062438965 76 1 delete
09:55:29 55.737906 37.299100 8 175.02937118688 0 128.78062438965 76 1 delete
09:55:17 55.737906 37.299100 8 175.0805688222 0 128.78062438965 76 1 delete
09:55:05 55.737906 37.299100 6 175.14377336192 0 128.78062438965 76 1 delete
09:54:53 55.737906 37.299100 4 175.18423482056 0 128.78062438965 76 1 delete
09:54:41 55.737906 37.299100 4 175.21915103652 0 128.78062438965 76 1 delete
09:54:29 55.737906 37.299100 4 175.23472602431 0 128.78062438965 76 1 delete
09:54:17 55.737906 37.299100 4 175.23712979622 0 128.78062438965 76 1 delete
09:54:05 55.737906 37.299100 6 175.2712855915 0 128.78062438965 76 1 delete
09:53:53 55.737906 37.299100 4 175.29972929299 0 128.78062438965 76 1 delete
09:53:41 55.737906 37.299100 4 175.37584860784 0 128.78062438965 76 1 delete
09:53:26 55.737906 37.299100 4 175.45113569305 0 128.78062438965 76 1 delete
09:53:14 55.737906 37.299100 4 175.58124580577 0 128.78062438965 76 1 delete
09:53:02 55.737906 37.299100 4 175.74803862931 0 128.78062438965 76 1 delete
09:52:53 55.737906 37.299100 4 175.81531160751 0 128.78062438965 76 1 delete
09:52:41 55.737906 37.299100 4 175.96012168947 0 128.78062438965 76 1 delete
09:52:29 55.737906 37.299100 8 176.06982642954 0 128.78062438965 76 1 delete
09:52:17 55.737906 37.299100 6 176.06170667438 0 128.78062438965 76 1 delete
09:52:08 55.737906 37.299100 6 176.02879114556 0 128.78062438965 76 1 delete
09:51:56 55.737906 37.299100 4 175.97431655543 0 128.78062438965 76 1 delete
09:51:44 55.737906 37.299100 4 175.83760387803 0 128.78062438965 76 1 delete
09:51:29 55.737906 37.299100 4 175.58069914263 0 128.78062438965 76 1 delete
09:51:16 55.737906 37.299100 8 175.56933887843 0 128.78062438965 76 1 delete
09:51:04 55.737906 37.299100 4 175.69358132347 0 128.78062438965 76 1 delete
09:50:52 55.737906 37.299100 6 175.8479627328 0 128.78062438965 76 1 delete
09:50:40 55.737906 37.299100 4 175.88846822063 0 128.78062438965 80 1 delete
09:50:28 55.737906 37.299100 6 175.91823981463 0 128.78062438965 80 1 delete
09:50:16 55.737906 37.299100 4 175.87622075125 0 128.78062438965 80 1 delete
09:50:04 55.737906 37.299100 4 175.88142829813 0 128.78062438965 80 1 delete
09:49:52 55.737906 37.299100 4 175.91914738971 0 128.78062438965 80 1 delete
09:49:40 55.737906 37.299100 4 175.96815269141 0 128.78062438965 80 1 delete
09:49:28 55.737906 37.299100 4 176.03506250056 0 128.78062438965 80 1 delete
09:49:16 55.737906 37.299100 6 176.05581510944 0 128.78062438965 80 1 delete
09:49:04 55.737906 37.299100 4 176.03111266672 0 128.78062438965 80 1 delete
09:48:52 55.737906 37.299100 4 175.97066147023 0 128.78062438965 80 1 delete
09:48:40 55.737906 37.299100 4 175.93630526231 0 128.78062438965 80 1 delete
09:48:31 55.737906 37.299100 4 175.92589834674 0 128.78062438965 80 1 delete
09:48:16 55.737906 37.299100 8 175.87047001072 0 128.78062438965 80 1 delete
09:48:07 55.737906 37.299100 6 175.79957068941 0 128.78062438965 80 1 delete
09:47:55 55.737906 37.299100 8 175.72207511155 0 128.78062438965 80 1 delete
09:47:43 55.737906 37.299100 6 175.65119954659 0 128.78062438965 80 1 delete
09:47:31 55.737906 37.299100 8 175.5676917726 0 128.78062438965 80 1 delete
09:47:22 55.737906 37.299100 4 175.49635877924 0 128.78062438965 80 1 delete
09:47:10 55.737906 37.299100 4 175.39686572287 0 128.78062438965 80 1 delete
09:46:55 55.737906 37.299100 4 175.31549636674 0 128.78062438965 80 1 delete
09:46:43 55.737906 37.299100 8 175.39147547239 0 128.78062438965 80 1 delete
09:46:31 55.737906 37.299100 8 175.5275427481 0 128.78062438965 80 1 delete
09:46:19 55.737906 37.299100 6 175.53172474085 0 128.78062438965 80 1 delete